Map

Track Data

SID SEASON NUMBER BASIN SUBBASIN NAME ISO_TIME NATURE LAT LON WMO_WIND WMO_PRES WMO_AGENCY TRACK_TYPE DIST2LAND LANDFALL IFLAG USA_AGENCY USA_ATCF_ID USA_LAT USA_LON USA_RECORD USA_STATUS USA_WIND USA_PRES USA_SSHS USA_R34_NE USA_R34_SE USA_R34_SW USA_R34_NW USA_R50_NE USA_R50_SE USA_R50_SW USA_R50_NW USA_R64_NE USA_R64_SE USA_R64_SW USA_R64_NW USA_POCI USA_ROCI USA_RMW USA_EYE TOKYO_LAT TOKYO_LON TOKYO_GRADE TOKYO_WIND TOKYO_PRES TOKYO_R50_DIR TOKYO_R50_LONG TOKYO_R50_SHORT TOKYO_R30_DIR TOKYO_R30_LONG TOKYO_R30_SHORT TOKYO_LAND CMA_LAT CMA_LON CMA_CAT CMA_WIND CMA_PRES HKO_LAT HKO_LON HKO_CAT HKO_WIND HKO_PRES NEWDELHI_LAT NEWDELHI_LON NEWDELHI_GRADE NEWDELHI_WIND NEWDELHI_PRES NEWDELHI_CI NEWDELHI_DP NEWDELHI_POCI REUNION_LAT REUNION_LON REUNION_TYPE REUNION_WIND REUNION_PRES REUNION_TNUM REUNION_CI REUNION_RMW REUNION_R34_NE REUNION_R34_SE REUNION_R34_SW REUNION_R34_NW REUNION_R50_NE REUNION_R50_SE REUNION_R50_SW REUNION_R50_NW REUNION_R64_NE REUNION_R64_SE REUNION_R64_SW REUNION_R64_NW BOM_LAT BOM_LON BOM_TYPE BOM_WIND BOM_PRES BOM_TNUM BOM_CI BOM_RMW BOM_R34_NE BOM_R34_SE BOM_R34_SW BOM_R34_NW BOM_R50_NE BOM_R50_SE BOM_R50_SW BOM_R50_NW BOM_R64_NE BOM_R64_SE BOM_R64_SW BOM_R64_NW BOM_ROCI BOM_POCI BOM_EYE BOM_POS_METHOD BOM_PRES_METHOD NADI_LAT NADI_LON NADI_CAT NADI_WIND NADI_PRES WELLINGTON_LAT WELLINGTON_LON WELLINGTON_WIND WELLINGTON_PRES DS824_LAT DS824_LON DS824_STAGE DS824_WIND DS824_PRES TD9636_LAT TD9636_LON TD9636_STAGE TD9636_WIND TD9636_PRES TD9635_LAT TD9635_LON TD9635_WIND TD9635_PRES TD9635_ROCI NEUMANN_LAT NEUMANN_LON NEUMANN_CLASS NEUMANN_WIND NEUMANN_PRES MLC_LAT MLC_LON MLC_CLASS MLC_WIND MLC_PRES USA_GUST BOM_GUST BOM_GUST_PER REUNION_GUST REUNION_GUST_PER USA_SEAHGT USA_SEARAD_NE USA_SEARAD_SE USA_SEARAD_SW USA_SEARAD_NW STORM_SPEED STORM_DIR
1980005S14120 1980 5 SI WA AMY 1980-01-04 12:00:00 TS -13.6333 120.167 20 998 bom main 370 370 O_____O__OO_O_ jtwc_sh SH071980 -13.2000 120.000 40 0 -14.5000 120.500 20 20 998 1.00000 -13.2000 120.000 TC 40 -13.2000 120.000 1 -13.2000 120.000 TC 35 7 208
1980005S14120 1980 5 SI WA AMY 1980-01-04 15:00:00 TS -13.9453 119.994 main 406 406 P_____P__PP_P_ SH071980 -13.6225 119.848 40 0 -14.6075 120.298 20 22 997 -13.6225 119.848 TC 40 -13.5892 119.827 1 -13.6225 119.848 TC 37 7 209
1980005S14120 1980 5 SI WA AMY 1980-01-04 18:00:00 TS -14.2254 119.829 25 997 bom main 418 410 O_____O__OP_O_ jtwc_sh SH071980 -14.0000 119.700 40 0 -14.7000 120.100 20 25 997 2.00000 -14.0000 119.700 TC 40 -13.9527 119.673 1 -14.0000 119.700 TC 40 6 211
1980005S14120 1980 5 SI WA AMY 1980-01-04 21:00:00 TS -14.4466 119.685 main 410 402 P_____P__PP_P_ SH071980 -14.2950 119.570 40 0 -14.7650 119.920 20 27 996 -14.2950 119.570 TC 40 -14.2648 119.558 1 -14.2950 119.570 TC 40 4 211
1980005S14120 1980 5 SI WA AMY 1980-01-05 00:00:00 TS -14.6000 119.600 30 995 bom main 402 394 O_____O__OO_O_ jtwc_sh SH071980 -14.5000 119.500 40 0 -14.8000 119.800 20 30 995 2.50000 -14.5000 119.500 TC 40 -14.5000 119.500 2 40 -14.5000 119.500 TC 40 3 195
1980005S14120 1980 5 SI WA AMY 1980-01-05 03:00:00 TS -14.6913 119.614 main 394 386 P_____P__PP_P_ SH071980 -14.6300 119.535 40 0 -14.8075 119.785 20 30 993 -14.6300 119.535 TC 40 -14.6427 119.510 2 -14.6300 119.535 TC 42 1 157
1980005S14120 1980 5 SI WA AMY 1980-01-05 06:00:00 TS -14.7362 119.660 30 992 bom main 386 378 O_____O__OP_O_ jtwc_sh SH071980 -14.7000 119.600 40 0 -14.8000 119.800 20 30 992 2.50000 -14.7000 119.600 TC 40 -14.7174 119.557 2 -14.7000 119.600 TC 45 1 157
1980005S14120 1980 5 SI WA AMY 1980-01-05 09:00:00 TS -14.7643 119.661 main 378 378 P_____P__PP_P_ SH071980 -14.7425 119.622 40 0 -14.8000 119.750 20 32 991 -14.7425 119.622 TC 40 -14.7584 119.601 2 -14.7425 119.622 TC 47 1 201
1980005S14120 1980 5 SI WA AMY 1980-01-05 12:00:00 TS -14.8000 119.633 35 990 bom main 386 379 O_____O__OO_O_ jtwc_sh SH071980 -14.8000 119.600 40 0 -14.8000 119.700 30 35 990 3.00000 -14.8000 119.600 TC 40 -14.8000 119.600 2 -14.8000 119.600 TC 50 2 212
1980005S14120 1980 5 SI WA AMY 1980-01-05 15:00:00 TS -14.8945 119.582 main 379 379 P_____P__PP_P_ SH071980 -14.9500 119.530 40 0 -14.8000 119.692 30 37 988 -14.9500 119.530 TC 40 -14.9171 119.517 2 -14.9500 119.530 TC 52 2 215
1980005S14120 1980 5 SI WA AMY 1980-01-05 18:00:00 TS -14.9896 119.497 40 987 bom main 380 380 O_____O__OP_O_ jtwc_sh SH071980 -15.1000 119.400 40 0 -14.8000 119.700 30 40 987 3.00000 -15.1000 119.400 TC 40 -15.0374 119.383 2 -15.1000 119.400 TC 55 2 231
1980005S14120 1980 5 SI WA AMY 1980-01-05 21:00:00 TS -15.0465 119.388 main 389 382 P_____P__PP_P_ SH071980 -15.1800 119.230 42 0 -14.8000 119.715 30 45 986 -15.1800 119.230 TC 42 -15.1390 119.207 2 -15.1800 119.230 TC 57 3 253
1980005S14120 1980 5 SI WA AMY 1980-01-06 00:00:00 TS -15.0667 119.233 50 985 bom main 399 399 O_____O__OO_O_ jtwc_sh SH071980 -15.2000 119.000 45 0 -14.8000 119.700 30 50 985 3.50000 -15.2000 119.000 TC 45 -15.2000 119.000 2 40 -15.2000 119.000 TC 60 4 270
1980005S14120 1980 5 SI WA AMY 1980-01-06 03:00:00 TS -15.0481 119.010 main 423 423 P_____P__PP_P_ SH071980 -15.1651 118.700 45 0 -14.8000 119.615 30 50 982 -15.1651 118.700 TC 45 -15.1934 118.730 2 -15.1651 118.700 TC 62 4 278
1980005S14120 1980 5 SI WA AMY 1980-01-06 06:00:00 TS -15.0076 118.773 50 980 bom main 441 441 O_____O__OP_O_ jtwc_sh SH071980 -15.1000 118.400 45 0 -14.8000 119.500 30 50 980 3.50000 -15.1000 118.400 TC 45 -15.1454 118.440 2 -15.1000 118.400 TC 65 4 281
1980005S14120 1980 5 SI WA AMY 1980-01-06 09:00:00 TS -14.9683 118.570 main 460 460 P_____P__PP_P_ SH071980 -15.0500 118.147 47 0 -14.7925 119.400 30 52 977 -15.0500 118.147 TC 47 -15.0746 118.180 2 -15.0500 118.147 TC 67 3 283
1980005S14120 1980 5 SI WA AMY 1980-01-06 12:00:00 TS -14.9333 118.433 55 975 bom main 484 484 O_____O__OO_O_ jtwc_sh SH071980 -15.0000 118.000 50 0 -14.8000 119.300 30 55 975 4.00000 -15.0000 118.000 TC 50 -15.0000 118.000 2 -15.0000 118.000 TC 70 2 291
1980005S14120 1980 5 SI WA AMY 1980-01-06 15:00:00 TS -14.9040 118.403 main 484 484 P_____P__PP_P_ SH071980 -14.9500 118.013 50 0 -14.8425 119.208 30 57 972 -14.9500 118.013 TC 50 -14.8889 117.968 2 -14.9500 118.013 TC 75 1 339
1980005S14120 1980 5 SI WA AMY 1980-01-06 18:00:00 TS -14.8812 118.420 60 970 bom main 484 484 O_____O__OP_O_ jtwc_sh SH071980 -14.9000 118.100 50 0 -14.9000 119.100 30 60 970 4.00000 -14.9000 118.100 TC 50 -14.7874 118.018 2 -14.9000 118.100 TC 80 1 0
1980005S14120 1980 5 SI WA AMY 1980-01-06 21:00:00 TS -14.8354 118.416 main 490 484 P_____P__PP_P_ SH071980 -14.8050 118.158 52 0 -14.9275 118.957 30 62 967 -14.8050 118.158 TC 52 -14.7421 118.109 2 -14.8050 118.158 TC 82 0 0
1980005S14120 1980 5 SI WA AMY 1980-01-07 00:00:00 TS -14.8667 118.400 65 965 bom main 484 478 O_____O__OO_O_ jtwc_sh SH071980 -14.8000 118.200 55 0 -15.0000 118.800 40 65 965 4.50000 -14.8000 118.200 TC 55 -14.8000 118.200 2 50 -14.8000 118.200 TC 85 2 197
1980005S14120 1980 5 SI WA AMY 1980-01-07 03:00:00 TS -15.0526 118.350 main 473 472 P_____P__PP_P_ SH071980 -14.9825 118.200 55 0 -15.1775 118.643 40 67 962 -14.9825 118.200 TC 55 -15.0131 118.216 2 -14.9825 118.200 TC 87 5 190
1980005S14120 1980 5 SI WA AMY 1980-01-07 06:00:00 TS -15.3383 118.305 70 959 bom main 472 457 O_____O__OP_O_ jtwc_sh SH071980 -15.3000 118.200 55 0 -15.4000 118.500 40 70 959 4.50000 -15.3000 118.200 TC 55 -15.3300 118.228 2 -15.3000 118.200 TC 90 6 186
1980005S14120 1980 5 SI WA AMY 1980-01-07 09:00:00 TS -15.6553 118.285 main 452 440 P_____P__PP_P_ SH071980 -15.6850 118.235 57 0 -15.5850 118.378 40 75 956 -15.6850 118.235 TC 57 -15.7069 118.251 2 -15.6850 118.235 TC 92 7 182
1980005S14120 1980 5 SI WA AMY 1980-01-07 12:00:00 TS -16.0000 118.300 80 954 bom main 440 419 O_____O__OO_O_ jtwc_sh SH071980 -16.1000 118.300 60 0 -15.8000 118.300 40 80 954 5.00000 -16.1000 118.300 TC 60 -16.1000 118.300 2 -16.1000 118.300 TC 95 7 174
1980005S14120 1980 5 SI WA AMY 1980-01-07 15:00:00 TS -16.3331 118.357 main 419 387 P_____P__PP_P_ SH071980 -16.4575 118.385 60 0 -16.0775 118.285 40 82 951 -16.4575 118.385 TC 60 -16.4713 118.416 2 -16.4575 118.385 TC 100 7 169
1980005S14120 1980 5 SI WA AMY 1980-01-07 18:00:00 TS -16.6742 118.443 85 949 bom main 387 352 O_____O__OP_O_ jtwc_sh SH071980 -16.8000 118.500 60 0 -16.4000 118.300 40 85 949 5.00000 -16.8000 118.500 TC 60 -16.8451 118.557 2 -16.8000 118.500 TC 105 7 165
1980005S14120 1980 5 SI WA AMY 1980-01-07 21:00:00 TS -17.0382 118.548 main 352 306 P_____P__PP_P_ SH071980 -17.1725 118.665 62 0 -16.7575 118.300 40 87 947 -17.1725 118.665 TC 62 -17.1963 118.694 2 -17.1725 118.665 TC 107 7 165
1980005S14120 1980 5 SI WA AMY 1980-01-08 00:00:00 TS -17.3667 118.633 90 945 bom main 306 284 O_____O__OO_O_ jtwc_sh SH071980 -17.5000 118.800 65 1 -17.1000 118.300 40 90 945 5.50000 -17.5000 118.800 TC 65 -17.5000 118.800 2 60 -17.5000 118.800 TC 110 6 171
1980005S14120 1980 5 SI WA AMY 1980-01-08 03:00:00 TS -17.6068 118.645 main 284 262 P_____P__PP_P_ SH071980 -17.7300 118.823 67 1 -17.3650 118.293 40 92 941 -17.7300 118.823 TC 67 -17.7212 118.816 2 61 -17.7300 118.823 TC 112 4 0
1980005S14120 1980 5 SI WA AMY 1980-01-08 06:00:00 TS -17.7991 118.633 95 937 bom main 262 240 O_____O__OP_O_ jtwc_sh SH071980 -17.9000 118.800 70 1 -17.6000 118.300 40 95 937 5.50000 -17.9000 118.800 TC 70 -17.8949 118.801 2 62 -17.9000 118.800 TC 115 4 0
1980005S14120 1980 5 SI WA AMY 1980-01-08 09:00:00 TS -17.9852 118.634 main 240 216 P_____P__PP_P_ SH071980 -18.0500 118.778 72 1 -17.8575 118.342 40 97 934 -18.0500 118.778 TC 72 -18.0462 118.785 2 63 -18.0500 118.778 TC 117 4 175
1980005S14120 1980 5 SI WA AMY 1980-01-08 12:00:00 TS -18.1667 118.667 100 932 bom main 216 192 O_____O__OO_O_ jtwc_sh SH071980 -18.2000 118.800 75 1 -18.1000 118.400 40 100 932 6.00000 -18.2000 118.800 TC 75 -18.2000 118.800 4 65 -18.2000 118.800 TC 120 4 162
1980005S14120 1980 5 SI WA AMY 1980-01-08 15:00:00 TS -18.3668 118.764 main 192 169 P_____P__PP_P_ SH071980 -18.3925 118.935 82 1 -18.3150 118.435 40 102 928 -18.3925 118.935 TC 82 -18.3929 118.909 4 67 -18.3925 118.935 TC 122 5 152
1980005S14120 1980 5 SI WA AMY 1980-01-08 18:00:00 TS -18.5654 118.892 105 925 bom main 169 156 O_____O__OP_O_ jtwc_sh SH071980 -18.6000 119.100 90 2 -18.5000 118.500 40 105 925 6.00000 -18.6000 119.100 TC 90 -18.5927 119.050 4 70 -18.6000 119.100 TC 125 5 148
1980005S14120 1980 5 SI WA AMY 1980-01-08 21:00:00 TS -18.7493 119.016 main 156 134 P_____P__PP_P_ SH071980 -18.8000 119.223 95 2 -18.6500 118.620 40 107 922 -18.8000 119.223 TC 95 -18.7961 119.190 4 72 -18.8000 119.223 TC 130 4 148
1980005S14120 1980 5 SI WA AMY 1980-01-09 00:00:00 TS -18.9333 119.133 110 920 bom main 134 111 O_____O__OO_O_ jtwc_sh SH071980 -19.0000 119.300 100 3 -18.8000 118.800 40 110 920 6.50000 -19.0000 119.300 TC 100 -19.0000 119.300 4 75 -19.0000 119.300 TC 135 4 153
1980005S14120 1980 5 SI WA AMY 1980-01-09 03:00:00 TS -19.1406 119.227 main 111 89 P_____P__PP_P_ SH071980 -19.2000 119.315 100 3 -19.0076 119.050 40 110 919 -19.2000 119.315 TC 100 -19.2284 119.320 4 81 -19.2000 119.315 TC 135 4 159
1980005S14120 1980 5 SI WA AMY 1980-01-09 06:00:00 TS -19.3421 119.301 110 918 bom main 89 67 O_____O__OP_O_ jtwc_sh SH071980 -19.4000 119.300 100 3 -19.2000 119.300 40 110 918 6.50000 -19.4000 119.300 TC 100 -19.4524 119.308 4 87 -19.4000 119.300 TC 135 4 164
1980005S14120 1980 5 SI WA AMY 1980-01-09 09:00:00 TS -19.5246 119.349 main 67 44 P_____P__PP_P_ SH071980 -19.6225 119.285 95 2 -19.3150 119.473 40 112 917 -19.6225 119.285 TC 95 -19.6502 119.292 4 93 -19.6225 119.285 TC 135 3 164
1980005S14120 1980 5 SI WA AMY 1980-01-09 12:00:00 TS -19.6667 119.400 115 916 bom main 44 44 O_____O__OO_O_ jtwc_sh SH071980 -19.8000 119.300 90 2 -19.4000 119.600 40 115 916 6.50000 -19.8000 119.300 TC 90 -19.8000 119.300 4 100 -19.8000 119.300 TC 135 3 148
1980005S14120 1980 5 SI WA AMY 1980-01-09 15:00:00 TS -19.7458 119.496 main 44 30 P_____P__PP_P_ SH071980 -19.8800 119.385 82 1 -19.5000 119.723 40 115 915 -19.8800 119.385 TC 82 -19.8347 119.375 4 97 -19.8800 119.385 TC 137 2 123
1980005S14120 1980 5 SI WA AMY 1980-01-09 18:00:00 TS -19.7879 119.596 115 915 bom main 30 24 O_____O__OP_O_ jtwc_sh SH071980 -19.9000 119.500 75 1 -19.6000 119.800 40 115 915 6.50000 -19.9000 119.500 TC 75 -19.8276 119.478 4 95 -19.9000 119.500 TC 140 2 109
1980005S14120 1980 5 SI WA AMY 1980-01-09 21:00:00 TS -19.8032 119.675 main 24 15 P_____P__PP_P_ SH071980 -19.8775 119.600 67 1 -19.6775 119.830 40 115 915 -19.8775 119.600 TC 67 -19.8316 119.591 4 92 -19.8775 119.600 TC 137 2 121
1980005S14120 1980 5 SI WA AMY 1980-01-10 00:00:00 TS -19.8667 119.733 115 915 bom main 15 0 O_____O__OO_O_ jtwc_sh SH071980 -19.9000 119.700 60 0 -19.8000 119.800 40 115 915 6.50000 -19.9000 119.700 TC 60 -19.9000 119.700 4 90 -19.9000 119.700 TC 135 915 3 156
1980005S14120 1980 5 SI WA AMY 1980-01-10 03:00:00 TS -20.0510 119.794 main 0 0 P_____P__PP_P_ SH071980 -20.0475 119.807 52 0 -20.0425 119.730 40 115 920 -20.0475 119.807 TC 52 -20.0783 119.882 4 82 -20.0475 119.807 TC 112 915 4 168
1980005S14120 1980 5 SI WA AMY 1980-01-10 06:00:00 TS -20.3048 119.824 115 925 bom main 0 0 O_____O__OP_O_ jtwc_sh SH071980 -20.3000 119.900 45 0 -20.3000 119.600 40 115 925 6.50000 -20.3000 119.900 TC 45 -20.3291 120.042 4 75 -20.3000 119.900 TC 90 915 5 175
1980005S14120 1980 5 SI WA AMY 1980-01-10 09:00:00 TS -20.5666 119.837 main 0 0 P_____P__PP_P_ SH071980 -20.6199 120.010 37 0 -20.4499 119.445 40 115 932 -20.6199 120.010 TC 37 -20.6403 120.106 4 67 -20.6199 120.010 TC 75 917 6 189
1980005S14120 1980 5 SI WA AMY 1980-01-10 12:00:00 TS -20.8667 119.733 115 940 bom main 0 0 O_____O__OO_O_ jtwc_sh SH071980 -21.0000 120.000 30 -1 -20.6000 119.200 40 115 940 6.50000 3 -21.0000 120.000 TC 30 -21.0000 120.000 2 60 -21.0000 120.000 TC 60 920 7 209
1980005S14120 1980 5 SI WA AMY 1980-01-10 15:00:00 TS -21.1934 119.461 main 0 0 P_____P__PP_P_ SH071980 -21.3845 119.827 -1 -20.8052 118.808 40 107 957 -21.3845 119.827 TC -21.3963 119.670 2 52 -21.3845 119.827 TC 52 10 226
1980005S14120 1980 5 SI WA AMY 1980-01-10 18:00:00 TS -21.5360 118.984 100 974 bom main 0 0 O_____O__OP_O_ jtwc_sh SH071980 -21.8000 119.400 -1 -21.1000 118.400 40 100 974 -21.8000 119.400 TC -21.8186 119.153 2 45 -21.8000 119.400 TC 45 12 233
1980005S14120 1980 5 SI WA AMY 1980-01-10 21:00:00 TS -21.9385 118.402 main 0 0 P_____P__PP_P_ SH071980 -22.2439 118.684 -1 -21.5272 118.157 40 95 979 -22.2439 118.684 TC -22.2565 118.510 2 37 -22.2966 118.557 TC 40 13 233
1980005S14120 1980 5 SI WA AMY 1980-01-11 00:00:00 TS -22.3267 117.853 90 985 bom main 0 0 O_____O__OO_O_ jtwc_sh SH071980 -22.7000 117.800 -1 -22.0000 117.900 40 90 985 -22.7000 117.800 TC -22.7000 117.800 1 30 -22.7000 117.800 TC 35 10 235
1980005S14120 1980 5 SI WA AMY 1980-01-11 03:00:00 TS -22.5134 117.519 main 0 0 ______P_____P_ SH071980 -1 -22.3779 117.428 40 75 987 TC 1 -22.7843 117.701 TC 32 7 227
1980005S14120 1980 5 SI WA AMY 1980-01-11 06:00:00 TS -22.8333 117.267 60 989 bom main 0 0 ______O_____O_ -1 -22.8000 117.000 30 60 989 1 -22.9000 117.800 TC 30 9 204
1980005S14120 1980 5 SI WA AMY 1980-01-11 09:00:00 TS -23.3716 117.105 main 0 0 ______P_____P_ -1 -23.3623 116.825 30 52 990 1 -23.3901 117.665 TC 30 12 190
1980005S14120 1980 5 SI WA AMY 1980-01-11 12:00:00 TS -24.0000 117.033 45 992 bom main 0 0 ______O_____O_ -1 -24.0000 116.800 30 45 992 -24.0000 117.500 TC 30 12 184
1980005S14120 1980 5 SI WA AMY 1980-01-11 15:00:00 TS -24.6050 117.018 main 0 0 ______P_____P_ -1 -24.6575 116.827 30 40 993 -24.5000 117.400 TC 30 12 179
1980005S14120 1980 5 SI WA AMY 1980-01-11 18:00:00 TS -25.2000 117.033 35 995 bom main 0 0 ______O_____O_ -1 -25.3000 116.900 30 35 995 -25.0000 117.300 TC 30 11 182
1980005S14120 1980 5 SI WA AMY 1980-01-11 21:00:00 TS -25.6999 116.968 main 0 0 ______P_____P_ -1 -25.7824 116.914 30 32 997 -25.5349 117.076 TC 27 11 182
1980005S14120 1980 5 SI WA AMY 1980-01-12 00:00:00 TS -26.3000 117.000 30 999 bom main 0 0 ______O_____O_ -1 -26.4000 117.000 80 30 999 -26.1000 117.000 TC 25 15 171
1980005S14120 1980 5 SI WA AMY 1980-01-12 03:00:00 TS -27.2106 117.236 main 0 0 ______P_____P_ -1 -27.4696 117.203 80 30 999 -26.6926 117.302 TC 25 20 162
1980005S14120 1980 5 SI WA AMY 1980-01-12 06:00:00 TS -28.1667 117.667 30 1000 bom main 0 0 ______O_____O_ -1 -28.6000 117.600 80 30 1000 -27.3000 117.800 TC 25 19 153
1980005S14120 1980 5 SI WA AMY 1980-01-12 09:00:00 TS -28.9135 118.211 main 0 0 ______P_____P_ -1 -29.4165 118.174 80 27 1001 -27.9075 118.285 TC 25 17 140
1980005S14120 1980 5 SI WA AMY 1980-01-12 12:00:00 TS -29.4600 118.920 25 1002 bom main 0 0 ______O_____O_ -1 -30.1000 119.000 80 25 1002 -28.5000 118.800 TC 25 16 127
1980005S14120 1980 5 SI WA AMY 1980-01-12 15:00:00 TS -29.9027 119.692 main 0 0 ______P_____P_ -1 -30.7554 120.076 80 25 1002 -29.0499 119.308 TC 22 15 124
1980005S14120 1980 5 SI WA AMY 1980-01-12 18:00:00 TS -30.3200 120.400 25 1003 bom main 0 0 ______O_____O_ -1 -31.4000 121.300 80 25 1003 -29.6000 119.800 TC 20 6 120
1980005S14120 1980 5 SI WA AMY 1980-01-12 21:00:00 TS -30.1877 120.259 main 0 0 ____________P_ -1 80 -30.1877 120.259 TC 20 5 152
1980005S14120 1980 5 SI WA AMY 1980-01-13 00:00:00 TS -30.8000 120.700 main 0 ____________O_ -1 -30.8000 120.700 TC 20 14 148

About IBTrACS Database

This database is a web-friendly format of International Best Track Archive for Climate Stewardship (IBTrACS), a global best track data archive curated by NOAA dating back to 1842.

Updated: 2021-11-26